Time;durP1;ratioP1;P1;durP2;ratioP2;P2;SDS_P1;SDS_P2;PMS_P1;PMS_P2;Temp;Humidity;BMP_temperature;BMP_pressure;BME280_temperature;BME280_humidity;BME280_pressure;Samples;Min_cycle;Max_cycle;Signal;HPM_P1;HPM_P2
2024/02/01 00:02:07;;;;;;;0.93;0.50;;;;;;;;;;5017513;28;20160;-69
2024/02/01 00:04:32;;;;;;;1.33;0.40;;;;;;;;;;5019035;28;20382;-69
2024/02/01 00:06:57;;;;;;;4.95;0.50;;;;;;;;;;5021293;28;20041;-69
2024/02/01 00:09:23;;;;;;;1.10;0.38;;;;;;;;;;5023038;28;20021;-69
2024/02/01 00:11:48;;;;;;;0.40;0.30;;;;;;;;;;5013989;28;20478;-69
2024/02/01 00:14:13;;;;;;;1.77;0.22;;;;;;;;;;5001818;28;20448;-69
2024/02/01 00:16:40;;;;;;;2.42;0.47;;;;;;;;;;5025106;28;20637;-69
2024/02/01 00:19:05;;;;;;;0.52;0.30;;;;;;;;;;5026896;28;20501;-71
2024/02/01 00:21:31;;;;;;;0.43;0.30;;;;;;;;;;5022641;28;20052;-68
2024/02/01 00:23:56;;;;;;;1.35;0.30;;;;;;;;;;5013215;28;20040;-69
2024/02/01 00:26:22;;;;;;;0.47;0.20;;;;;;;;;;5010027;28;20033;-69
2024/02/01 00:28:47;;;;;;;0.55;0.38;;;;;;;;;;5027082;28;20037;-69
2024/02/01 00:31:12;;;;;;;0.77;0.30;;;;;;;;;;5011732;28;20113;-69
2024/02/01 00:33:38;;;;;;;0.52;0.30;;;;;;;;;;5024205;28;20129;-69
2024/02/01 00:36:04;;;;;;;1.38;0.50;;;;;;;;;;5022795;28;20048;-69
2024/02/01 00:38:29;;;;;;;0.80;0.40;;;;;;;;;;5027477;28;20674;-69
2024/02/01 00:40:54;;;;;;;0.32;0.30;;;;;;;;;;5018029;28;20030;-69
2024/02/01 00:43:20;;;;;;;1.33;0.35;;;;;;;;;;5022519;28;20045;-68
2024/02/01 00:45:45;;;;;;;1.65;0.32;;;;;;;;;;5021038;28;20041;-69
2024/02/01 00:48:10;;;;;;;2.45;0.60;;;;;;;;;;5023719;28;20038;-69
2024/02/01 00:50:36;;;;;;;0.22;0.22;;;;;;;;;;5021689;28;20044;-68
2024/02/01 00:53:01;;;;;;;0.57;0.30;;;;;;;;;;5019229;28;20030;-69
2024/02/01 00:55:26;;;;;;;3.00;0.40;;;;;;;;;;5013125;28;20041;-69
2024/02/01 00:57:51;;;;;;;3.33;0.60;;;;;;;;;;5013171;28;20104;-69
2024/02/01 01:00:17;;;;;;;1.02;0.40;;;;;;;;;;5013764;28;20049;-70
2024/02/01 01:02:42;;;;;;;3.35;0.60;;;;;;;;;;5014944;28;20053;-69
2024/02/01 01:05:08;;;;;;;4.75;0.40;;;;;;;;;;5022512;28;20400;-68
2024/02/01 01:07:34;;;;;;;5.00;0.63;;;;;;;;;;5021657;28;20034;-69
2024/02/01 01:09:59;;;;;;;4.57;0.40;;;;;;;;;;5024375;28;20487;-69
2024/02/01 01:12:24;;;;;;;0.20;0.20;;;;;;;;;;5022946;28;20042;-68
2024/02/01 01:14:50;;;;;;;3.30;0.43;;;;;;;;;;5018663;28;20053;-70
2024/02/01 01:17:15;;;;;;;1.15;0.32;;;;;;;;;;5013211;28;20046;-69
2024/02/01 01:19:41;;;;;;;0.68;0.40;;;;;;;;;;5012732;28;20042;-69
2024/02/01 01:22:06;;;;;;;1.17;0.28;;;;;;;;;;5015046;28;20716;-69
2024/02/01 01:24:32;;;;;;;1.05;0.50;;;;;;;;;;5011854;28;20042;-68
2024/02/01 01:26:57;;;;;;;3.38;0.60;;;;;;;;;;5021172;28;20034;-69
2024/02/01 01:29:23;;;;;;;0.98;0.55;;;;;;;;;;5013583;28;20139;-69
2024/02/01 01:31:48;;;;;;;2.22;0.57;;;;;;;;;;5009124;28;20038;-69
2024/02/01 01:34:13;;;;;;;13.13;0.68;;;;;;;;;;5016325;28;20045;-69
2024/02/01 01:36:39;;;;;;;6.13;0.50;;;;;;;;;;5021991;28;20033;-69
2024/02/01 01:39:04;;;;;;;2.05;0.28;;;;;;;;;;5023190;28;20128;-69
2024/02/01 01:41:30;;;;;;;6.50;0.57;;;;;;;;;;5002987;28;20080;-69
2024/02/01 01:43:55;;;;;;;2.25;0.40;;;;;;;;;;5020531;28;20025;-69
2024/02/01 01:46:20;;;;;;;4.75;0.50;;;;;;;;;;5016311;28;20041;-69
2024/02/01 01:48:46;;;;;;;4.70;0.38;;;;;;;;;;5021193;28;20094;-69
2024/02/01 01:51:13;;;;;;;0.68;0.35;;;;;;;;;;5023105;28;20514;-68
2024/02/01 01:53:40;;;;;;;6.25;0.30;;;;;;;;;;5007641;28;20049;-69
2024/02/01 01:56:06;;;;;;;1.67;0.65;;;;;;;;;;4998831;28;20050;-68
2024/02/01 01:58:33;;;;;;;0.35;0.30;;;;;;;;;;4991929;28;20038;-69
2024/02/01 02:00:59;;;;;;;9.13;0.60;;;;;;;;;;5012066;28;20063;-69
2024/02/01 02:03:28;;;;;;;5.35;0.43;;;;;;;;;;4998789;28;20547;-68
2024/02/01 02:05:56;;;;;;;12.50;0.70;;;;;;;;;;5015207;28;20245;-70
2024/02/01 02:08:22;;;;;;;3.05;0.60;;;;;;;;;;5015195;28;20037;-69
2024/02/01 02:10:48;;;;;;;3.65;0.40;;;;;;;;;;5011488;28;20041;-69
2024/02/01 02:13:13;;;;;;;1.05;0.60;;;;;;;;;;5006468;28;20116;-69
2024/02/01 02:15:38;;;;;;;0.60;0.50;;;;;;;;;;5016168;28;20137;-68
2024/02/01 02:18:09;;;;;;;0.73;0.43;;;;;;;;;;5021285;28;20073;-69
2024/02/01 02:20:36;;;;;;;1.42;0.30;;;;;;;;;;5000219;28;20120;-69
2024/02/01 02:23:02;;;;;;;8.80;0.77;;;;;;;;;;5022162;28;20033;-68
2024/02/01 02:25:28;;;;;;;3.60;0.40;;;;;;;;;;4993748;28;20062;-69
2024/02/01 02:27:53;;;;;;;1.13;0.38;;;;;;;;;;5027609;28;20076;-69
2024/02/01 02:30:18;;;;;;;1.58;0.45;;;;;;;;;;5019411;28;20068;-69
2024/02/01 02:32:44;;;;;;;7.63;0.60;;;;;;;;;;5023504;28;20041;-69
2024/02/01 02:35:14;;;;;;;4.40;0.35;;;;;;;;;;5015128;28;20029;-69
2024/02/01 02:37:49;;;;;;;1.30;0.57;;;;;;;;;;5021927;28;20096;-69
2024/02/01 02:40:16;;;;;;;4.45;0.77;;;;;;;;;;5020930;28;20037;-68
2024/02/01 02:42:42;;;;;;;4.65;0.70;;;;;;;;;;5022155;28;20037;-69
2024/02/01 02:45:08;;;;;;;5.45;0.50;;;;;;;;;;5011328;28;20044;-68
2024/02/01 02:47:33;;;;;;;6.18;0.70;;;;;;;;;;5009655;28;20041;-69
2024/02/01 02:49:59;;;;;;;5.80;0.80;;;;;;;;;;5012846;28;20370;-69
2024/02/01 02:52:24;;;;;;;4.93;0.60;;;;;;;;;;5020883;28;20804;-69
2024/02/01 02:54:49;;;;;;;3.20;0.77;;;;;;;;;;5023150;28;20353;-69
2024/02/01 02:57:15;;;;;;;4.63;0.90;;;;;;;;;;5018134;28;20056;-69
2024/02/01 02:59:41;;;;;;;8.18;1.00;;;;;;;;;;5009229;28;20107;-69
2024/02/01 03:02:06;;;;;;;4.57;0.73;;;;;;;;;;5017883;28;20070;-69
2024/02/01 03:04:35;;;;;;;7.18;1.10;;;;;;;;;;5022714;28;20057;-68
2024/02/01 03:07:00;;;;;;;7.78;0.70;;;;;;;;;;5018071;28;20046;-69
2024/02/01 03:09:26;;;;;;;8.95;1.20;;;;;;;;;;5027288;28;20048;-69
2024/02/01 03:11:51;;;;;;;2.03;0.57;;;;;;;;;;5020410;28;20388;-70
2024/02/01 03:14:16;;;;;;;5.28;0.75;;;;;;;;;;5014311;28;20477;-68
2024/02/01 03:16:42;;;;;;;1.92;0.70;;;;;;;;;;5012310;28;20081;-69
2024/02/01 03:19:11;;;;;;;5.55;0.73;;;;;;;;;;5021882;28;20046;-68
2024/02/01 03:21:36;;;;;;;2.95;0.65;;;;;;;;;;5003175;28;20064;-68
2024/02/01 03:24:02;;;;;;;3.67;0.80;;;;;;;;;;5024436;28;20447;-68
2024/02/01 03:26:34;;;;;;;11.40;0.80;;;;;;;;;;4993593;28;20041;-69
2024/02/01 03:29:00;;;;;;;6.25;0.85;;;;;;;;;;5006944;28;20044;-69
2024/02/01 03:31:33;;;;;;;7.65;0.90;;;;;;;;;;5016534;28;20037;-69
2024/02/01 03:34:05;;;;;;;5.00;0.90;;;;;;;;;;5007436;28;20404;-69
2024/02/01 03:36:33;;;;;;;7.38;1.15;;;;;;;;;;5020881;28;20758;-69
2024/02/01 03:38:59;;;;;;;11.25;0.98;;;;;;;;;;4991812;28;20035;-69
2024/02/01 03:41:24;;;;;;;10.68;1.08;;;;;;;;;;5015281;28;20049;-69
2024/02/01 03:43:51;;;;;;;5.30;0.70;;;;;;;;;;5011539;28;20041;-69
2024/02/01 03:46:16;;;;;;;5.32;1.00;;;;;;;;;;5021838;28;20053;-69
2024/02/01 03:48:42;;;;;;;14.25;0.93;;;;;;;;;;5017063;28;20043;-68
2024/02/01 03:51:07;;;;;;;12.07;1.00;;;;;;;;;;5014951;28;20116;-69
2024/02/01 03:53:35;;;;;;;16.67;1.67;;;;;;;;;;5015746;28;20038;-69
2024/02/01 03:56:03;;;;;;;4.50;0.68;;;;;;;;;;5017522;28;20100;-69
2024/02/01 03:58:28;;;;;;;7.18;1.17;;;;;;;;;;5013914;28;20615;-69
2024/02/01 04:00:56;;;;;;;4.70;0.80;;;;;;;;;;5013868;28;20042;-69
2024/02/01 04:03:22;;;;;;;12.20;0.82;;;;;;;;;;5016960;28;20104;-69
2024/02/01 04:05:47;;;;;;;21.38;1.98;;;;;;;;;;5018062;28;20469;-68
2024/02/01 04:08:17;;;;;;;6.25;0.82;;;;;;;;;;5024543;28;20041;-69
2024/02/01 04:10:44;;;;;;;12.43;1.40;;;;;;;;;;5014436;28;20513;-69
2024/02/01 04:13:09;;;;;;;12.00;1.35;;;;;;;;;;5021930;28;20038;-69
2024/02/01 04:15:35;;;;;;;8.98;0.93;;;;;;;;;;5016985;28;20115;-69
2024/02/01 04:18:02;;;;;;;2.60;0.60;;;;;;;;;;5020541;28;20050;-69
2024/02/01 04:20:29;;;;;;;4.70;0.80;;;;;;;;;;5017665;28;20029;-69
2024/02/01 04:22:54;;;;;;;17.17;1.38;;;;;;;;;;5019468;28;20042;-69
2024/02/01 04:25:23;;;;;;;12.80;0.98;;;;;;;;;;5012601;28;20057;-68
2024/02/01 04:27:50;;;;;;;17.17;1.20;;;;;;;;;;5016403;28;20025;-68
2024/02/01 04:30:18;;;;;;;10.88;1.35;;;;;;;;;;4997543;28;20046;-68
2024/02/01 04:32:45;;;;;;;10.88;1.30;;;;;;;;;;5015095;28;20120;-68
2024/02/01 04:35:12;;;;;;;10.77;1.13;;;;;;;;;;4992118;28;20112;-69
2024/02/01 04:37:38;;;;;;;10.70;1.00;;;;;;;;;;5014900;28;20121;-69
2024/02/01 04:40:05;;;;;;;15.65;1.42;;;;;;;;;;5025924;28;20188;-69
2024/02/01 04:42:31;;;;;;;15.60;1.73;;;;;;;;;;5030506;28;20366;-68
2024/02/01 04:45:04;;;;;;;9.10;1.17;;;;;;;;;;5014801;28;20041;-68
2024/02/01 04:47:29;;;;;;;11.65;1.30;;;;;;;;;;4999190;28;20037;-69
2024/02/01 04:49:55;;;;;;;16.13;1.83;;;;;;;;;;5016938;28;20373;-68
2024/02/01 04:52:20;;;;;;;21.85;2.15;;;;;;;;;;5022386;28;20044;-69
2024/02/01 04:54:45;;;;;;;24.55;2.78;;;;;;;;;;5020336;28;20030;-69
2024/02/01 04:57:14;;;;;;;24.55;2.15;;;;;;;;;;5024655;28;20029;-69
2024/02/01 04:59:43;;;;;;;19.98;1.98;;;;;;;;;;5012883;28;21149;-69
2024/02/01 05:02:09;;;;;;;17.52;1.70;;;;;;;;;;4996777;28;20081;-69
2024/02/01 05:04:35;;;;;;;12.73;1.48;;;;;;;;;;5022692;28;20044;-69
2024/02/01 05:07:00;;;;;;;18.60;2.42;;;;;;;;;;5022120;28;20477;-69
2024/02/01 05:09:26;;;;;;;21.15;1.85;;;;;;;;;;4996306;28;20038;-69
2024/02/01 05:11:54;;;;;;;21.70;1.45;;;;;;;;;;5015990;28;20033;-69
2024/02/01 05:14:20;;;;;;;9.95;1.70;;;;;;;;;;4995863;28;20042;-68
2024/02/01 05:16:47;;;;;;;9.68;1.17;;;;;;;;;;5017315;28;20053;-69
2024/02/01 05:19:12;;;;;;;6.70;1.20;;;;;;;;;;5019278;28;20034;-69
2024/02/01 05:21:37;;;;;;;16.27;1.63;;;;;;;;;;5020673;28;20071;-69
2024/02/01 05:24:03;;;;;;;19.27;2.40;;;;;;;;;;5016222;28;20119;-69
2024/02/01 05:26:28;;;;;;;10.18;1.55;;;;;;;;;;5018900;28;20040;-69
2024/02/01 05:28:53;;;;;;;14.00;1.92;;;;;;;;;;5011825;28;20042;-70
2024/02/01 05:31:21;;;;;;;17.33;2.00;;;;;;;;;;5016695;28;20038;-68
2024/02/01 05:33:47;;;;;;;20.65;2.33;;;;;;;;;;5014724;28;20064;-69
2024/02/01 05:36:13;;;;;;;14.57;1.88;;;;;;;;;;5021617;28;20072;-69
2024/02/01 05:38:41;;;;;;;11.65;2.13;;;;;;;;;;5026746;28;20044;-69
2024/02/01 05:41:11;;;;;;;19.15;2.17;;;;;;;;;;5022571;28;20030;-69
2024/02/01 05:43:41;;;;;;;10.35;1.60;;;;;;;;;;5014973;28;20125;-68
2024/02/01 05:46:09;;;;;;;7.00;1.25;;;;;;;;;;4997576;28;20121;-69
2024/02/01 05:48:34;;;;;;;28.25;2.20;;;;;;;;;;5020800;28;20116;-68
2024/02/01 05:50:59;;;;;;;11.55;2.13;;;;;;;;;;5018792;28;20145;-68
2024/02/01 05:53:25;;;;;;;14.93;1.67;;;;;;;;;;5025411;28;20068;-69
2024/02/01 05:55:50;;;;;;;11.63;1.58;;;;;;;;;;5025318;28;20045;-69
2024/02/01 05:58:16;;;;;;;24.15;1.80;;;;;;;;;;5020947;28;20022;-68
2024/02/01 06:00:41;;;;;;;16.75;1.88;;;;;;;;;;5006978;28;20094;-68
2024/02/01 06:03:09;;;;;;;20.83;2.50;;;;;;;;;;5019412;28;20041;-69
2024/02/01 06:05:35;;;;;;;10.55;1.42;;;;;;;;;;5015925;28;20033;-68
2024/02/01 06:08:01;;;;;;;12.40;1.23;;;;;;;;;;5013380;28;20041;-68
2024/02/01 06:10:26;;;;;;;8.63;1.15;;;;;;;;;;5014404;28;20080;-68
2024/02/01 06:12:52;;;;;;;27.90;2.08;;;;;;;;;;5024777;28;20025;-69
2024/02/01 06:15:18;;;;;;;17.77;2.20;;;;;;;;;;5014796;28;20053;-69
2024/02/01 06:17:43;;;;;;;12.52;2.10;;;;;;;;;;5024389;28;20041;-68
2024/02/01 06:20:10;;;;;;;18.20;3.03;;;;;;;;;;5017233;28;20033;-68
2024/02/01 06:22:36;;;;;;;27.67;3.03;;;;;;;;;;5012452;28;20050;-69
2024/02/01 06:25:03;;;;;;;8.55;0.75;;;;;;;;;;5023788;28;20045;-68
2024/02/01 06:27:28;;;;;;;15.55;1.67;;;;;;;;;;5017462;28;20037;-68
2024/02/01 06:29:54;;;;;;;9.25;2.08;;;;;;;;;;5014581;28;20037;-68
2024/02/01 06:32:19;;;;;;;13.00;1.33;;;;;;;;;;5017961;28;20038;-68
2024/02/01 06:34:53;;;;;;;10.15;2.17;;;;;;;;;;5016573;28;20083;-68
2024/02/01 06:37:19;;;;;;;4.97;1.27;;;;;;;;;;5016629;28;20096;-68
2024/02/01 06:42:32;;;;;;;12.93;1.40;;;;;;;;;;5018763;28;20108;-69
2024/02/01 06:45:08;;;;;;;26.90;2.90;;;;;;;;;;5004206;28;20037;-69
2024/02/01 06:47:38;;;;;;;16.10;1.02;;;;;;;;;;5015489;28;20046;-68
2024/02/01 06:50:15;;;;;;;18.65;1.45;;;;;;;;;;5014245;28;20037;-69
2024/02/01 06:52:43;;;;;;;7.70;1.58;;;;;;;;;;5011628;28;20405;-68
2024/02/01 07:03:13;;;;;;;21.80;2.10;;;;;;;;;;5019532;28;20112;-68
2024/02/01 07:06:25;;;;;;;11.30;1.58;;;;;;;;;;4999198;28;20037;-68
2024/02/01 07:08:45;;;;;;;15.80;1.13;;;;;;;;;;4996382;28;20057;-68
2024/02/01 07:16:43;;;;;;;17.02;1.33;;;;;;;;;;5020848;28;20046;-68
2024/02/01 07:19:39;;;;;;;10.88;1.17;;;;;;;;;;5007593;28;20048;-69
2024/02/01 07:22:09;;;;;;;28.63;2.25;;;;;;;;;;5020525;28;20043;-68
2024/02/01 07:57:49;;;;;;;15.95;2.90;;;;;;;;;;5008136;28;20125;-68
2024/02/01 08:00:19;;;;;;;17.75;3.58;;;;;;;;;;5014114;28;20033;-68
2024/02/01 08:02:52;;;;;;;16.77;3.17;;;;;;;;;;4993020;28;20049;-68
2024/02/01 08:08:05;;;;;;;25.95;3.00;;;;;;;;;;5015605;28;20056;-69
2024/02/01 08:10:31;;;;;;;17.05;3.33;;;;;;;;;;5024874;28;20038;-70
2024/02/01 08:13:04;;;;;;;15.00;4.25;;;;;;;;;;5011955;28;20098;-68
2024/02/01 08:15:31;;;;;;;20.15;3.35;;;;;;;;;;5003311;28;20036;-69
2024/02/01 08:17:57;;;;;;;14.02;3.08;;;;;;;;;;5003255;28;20045;-69
2024/02/01 08:20:22;;;;;;;11.43;3.63;;;;;;;;;;5011700;28;20034;-69
2024/02/01 08:22:48;;;;;;;12.57;2.63;;;;;;;;;;5009174;28;20037;-69
2024/02/01 08:25:14;;;;;;;12.88;2.72;;;;;;;;;;5007259;28;20544;-69
2024/02/01 08:27:52;;;;;;;4.63;2.17;;;;;;;;;;5011558;28;20037;-69
2024/02/01 08:30:30;;;;;;;19.92;2.97;;;;;;;;;;5016883;28;20044;-69
2024/02/01 08:33:05;;;;;;;15.95;3.50;;;;;;;;;;5020823;28;20062;-69
2024/02/01 08:35:33;;;;;;;26.02;2.95;;;;;;;;;;5012506;28;20612;-69
2024/02/01 08:38:00;;;;;;;22.02;2.83;;;;;;;;;;5014653;28;20465;-69
2024/02/01 08:40:26;;;;;;;20.42;2.20;;;;;;;;;;4998138;28;20428;-69
2024/02/01 08:43:10;;;;;;;26.52;2.45;;;;;;;;;;5009930;28;20096;-69
2024/02/01 08:45:39;;;;;;;11.93;2.15;;;;;;;;;;5023607;28;20060;-69
2024/02/01 08:48:08;;;;;;;17.55;1.88;;;;;;;;;;5023917;28;20049;-68
2024/02/01 08:50:46;;;;;;;8.30;1.83;;;;;;;;;;5026106;28;20042;-69
2024/02/01 08:53:15;;;;;;;5.63;1.23;;;;;;;;;;5023859;28;20025;-69
2024/02/01 08:55:41;;;;;;;8.48;1.73;;;;;;;;;;4984801;28;20044;-69
2024/02/01 08:58:11;;;;;;;15.25;2.03;;;;;;;;;;5020176;28;20017;-69
2024/02/01 09:00:43;;;;;;;14.70;1.52;;;;;;;;;;5020235;28;20033;-69
2024/02/01 09:03:19;;;;;;;14.35;1.38;;;;;;;;;;5026552;28;20116;-68
2024/02/01 09:05:47;;;;;;;7.85;1.77;;;;;;;;;;5022102;28;20564;-69
2024/02/01 09:08:24;;;;;;;8.02;1.52;;;;;;;;;;4988583;28;20260;-70
2024/02/01 09:10:51;;;;;;;8.30;1.45;;;;;;;;;;5016237;28;20033;-70
2024/02/01 09:13:20;;;;;;;10.68;1.30;;;;;;;;;;4995611;28;20638;-68
2024/02/01 09:15:46;;;;;;;7.32;1.65;;;;;;;;;;5000413;28;20036;-69
2024/02/01 09:18:12;;;;;;;10.20;2.03;;;;;;;;;;5005077;28;20057;-69
2024/02/01 09:20:38;;;;;;;12.77;1.60;;;;;;;;;;5019005;28;20057;-69
2024/02/01 09:23:03;;;;;;;14.75;2.00;;;;;;;;;;5004029;28;20045;-70
2024/02/01 09:25:29;;;;;;;11.98;2.20;;;;;;;;;;5003167;28;20076;-69
2024/02/01 09:27:55;;;;;;;7.05;1.90;;;;;;;;;;5005265;28;20041;-68
2024/02/01 09:30:23;;;;;;;6.95;1.60;;;;;;;;;;5002902;28;20162;-69
2024/02/01 09:32:53;;;;;;;7.95;1.83;;;;;;;;;;5012904;28;20041;-69
2024/02/01 09:35:19;;;;;;;6.28;1.80;;;;;;;;;;5000797;28;20033;-69
2024/02/01 09:37:45;;;;;;;9.02;2.08;;;;;;;;;;5020051;28;20037;-69
2024/02/01 09:40:11;;;;;;;18.65;1.95;;;;;;;;;;5022865;28;20033;-70
2024/02/01 09:42:38;;;;;;;8.30;1.95;;;;;;;;;;5024120;28;20091;-69
2024/02/01 09:45:05;;;;;;;7.25;1.83;;;;;;;;;;5024509;28;20041;-69
2024/02/01 09:47:41;;;;;;;14.98;2.00;;;;;;;;;;5002177;28;20041;-69
2024/02/01 09:50:07;;;;;;;7.40;1.85;;;;;;;;;;5026399;28;20451;-69
2024/02/01 09:52:39;;;;;;;9.90;2.10;;;;;;;;;;5018899;28;20034;-67
2024/02/01 09:55:07;;;;;;;8.52;1.70;;;;;;;;;;5016829;28;20165;-68
2024/02/01 09:57:40;;;;;;;7.15;1.90;;;;;;;;;;5024002;28;20520;-67
2024/02/01 10:00:12;;;;;;;8.32;2.22;;;;;;;;;;4990333;28;20428;-68
2024/02/01 10:02:39;;;;;;;8.73;1.98;;;;;;;;;;4995466;28;20191;-69
2024/02/01 10:05:05;;;;;;;10.85;3.00;;;;;;;;;;5020679;28;20108;-69
2024/02/01 10:07:30;;;;;;;11.73;2.63;;;;;;;;;;5023171;28;20115;-69
2024/02/01 10:09:56;;;;;;;17.02;2.92;;;;;;;;;;5023735;28;20072;-68
2024/02/01 10:12:25;;;;;;;18.15;2.55;;;;;;;;;;5019768;28;20061;-68
2024/02/01 10:14:51;;;;;;;15.90;3.05;;;;;;;;;;5024678;28;20033;-69
2024/02/01 10:17:17;;;;;;;13.60;2.70;;;;;;;;;;5022747;28;20049;-69
2024/02/01 10:19:49;;;;;;;11.90;2.78;;;;;;;;;;5020802;28;20041;-68
2024/02/01 10:22:15;;;;;;;13.82;2.60;;;;;;;;;;5000296;28;20045;-68
2024/02/01 10:24:45;;;;;;;12.48;3.65;;;;;;;;;;5001954;28;20389;-69
2024/02/01 10:27:14;;;;;;;18.05;4.45;;;;;;;;;;5008292;28;20044;-68
2024/02/01 10:29:44;;;;;;;13.60;2.90;;;;;;;;;;5016069;28;20398;-69
2024/02/01 10:32:16;;;;;;;14.05;2.55;;;;;;;;;;5006444;28;20056;-68
2024/02/01 10:34:53;;;;;;;9.18;2.50;;;;;;;;;;5011218;28;20033;-68
2024/02/01 10:37:19;;;;;;;14.20;2.17;;;;;;;;;;5020172;28;20052;-68
2024/02/01 10:40:17;;;;;;;10.25;2.60;;;;;;;;;;5020285;28;20038;-69
2024/02/01 10:42:45;;;;;;;12.73;2.60;;;;;;;;;;4948903;28;20057;-69
2024/02/01 10:45:12;;;;;;;11.93;1.80;;;;;;;;;;5016208;28;20033;-69
2024/02/01 10:47:42;;;;;;;14.10;2.58;;;;;;;;;;4997590;28;20113;-69
2024/02/01 10:50:09;;;;;;;13.63;2.08;;;;;;;;;;5000572;28;20041;-70
2024/02/01 10:52:36;;;;;;;15.68;2.20;;;;;;;;;;4996854;28;20044;-68
2024/02/01 10:55:09;;;;;;;22.50;2.33;;;;;;;;;;5012983;28;20060;-69
2024/02/01 10:57:36;;;;;;;11.25;1.85;;;;;;;;;;5014666;28;20048;-68
2024/02/01 11:00:02;;;;;;;13.57;2.35;;;;;;;;;;5020361;28;20187;-69
2024/02/01 11:02:29;;;;;;;15.88;2.10;;;;;;;;;;5001791;28;20038;-69
2024/02/01 11:04:55;;;;;;;14.48;2.13;;;;;;;;;;5008692;28;20409;-68
2024/02/01 11:07:23;;;;;;;16.63;2.33;;;;;;;;;;4999764;28;20042;-69
2024/02/01 11:09:50;;;;;;;8.77;2.28;;;;;;;;;;5003323;28;20046;-69
2024/02/01 11:12:22;;;;;;;11.45;1.83;;;;;;;;;;5021084;28;20069;-69
2024/02/01 11:14:48;;;;;;;9.35;1.90;;;;;;;;;;4987005;28;20088;-70
2024/02/01 11:17:21;;;;;;;12.60;2.47;;;;;;;;;;5019606;28;20077;-69
2024/02/01 11:19:48;;;;;;;7.63;1.83;;;;;;;;;;5006474;28;20042;-69
2024/02/01 11:22:16;;;;;;;19.98;2.65;;;;;;;;;;5017627;28;20275;-69
2024/02/01 11:24:41;;;;;;;14.77;2.70;;;;;;;;;;5014748;28;20116;-68
2024/02/01 11:27:21;;;;;;;13.27;2.75;;;;;;;;;;5020865;28;20087;-69
2024/02/01 11:29:48;;;;;;;12.55;1.95;;;;;;;;;;5001198;28;20033;-69
2024/02/01 11:32:19;;;;;;;18.73;2.40;;;;;;;;;;5000273;28;20046;-68
2024/02/01 11:34:58;;;;;;;17.60;2.25;;;;;;;;;;5015221;28;20600;-69
2024/02/01 11:37:24;;;;;;;9.75;1.95;;;;;;;;;;4995742;28;20056;-69
2024/02/01 11:39:50;;;;;;;15.80;2.33;;;;;;;;;;5019759;28;20492;-69
2024/02/01 11:42:15;;;;;;;12.82;2.38;;;;;;;;;;5017741;28;20056;-69
2024/02/01 11:44:41;;;;;;;14.63;2.25;;;;;;;;;;5018706;28;20076;-70
2024/02/01 11:47:07;;;;;;;9.73;1.80;;;;;;;;;;4995084;28;20378;-70
2024/02/01 11:49:36;;;;;;;15.10;2.45;;;;;;;;;;5016889;28;20123;-69
2024/02/01 11:52:13;;;;;;;15.90;2.35;;;;;;;;;;4997483;28;20029;-69
2024/02/01 11:54:59;;;;;;;10.98;1.55;;;;;;;;;;5009679;28;20042;-70
2024/02/01 11:57:25;;;;;;;12.57;2.22;;;;;;;;;;5012199;28;20036;-69
2024/02/01 11:59:55;;;;;;;6.05;1.52;;;;;;;;;;4991498;28;20424;-69
2024/02/01 12:02:21;;;;;;;13.10;2.30;;;;;;;;;;5020062;28;20041;-71
2024/02/01 12:04:46;;;;;;;13.95;2.00;;;;;;;;;;4988620;28;20127;-69
2024/02/01 12:07:16;;;;;;;9.82;1.70;;;;;;;;;;5012358;28;20390;-70
2024/02/01 12:09:42;;;;;;;16.33;2.67;;;;;;;;;;5015744;28;20030;-70
2024/02/01 12:12:08;;;;;;;10.15;2.15;;;;;;;;;;5012291;28;20090;-68
2024/02/01 12:14:37;;;;;;;15.18;2.40;;;;;;;;;;5003620;28;20038;-69
2024/02/01 12:17:04;;;;;;;10.80;2.15;;;;;;;;;;5011812;28;20045;-68
2024/02/01 12:19:38;;;;;;;13.20;2.33;;;;;;;;;;5009631;28;20042;-69
2024/02/01 12:22:06;;;;;;;8.98;1.35;;;;;;;;;;5010357;28;20517;-69
2024/02/01 12:24:34;;;;;;;12.20;2.20;;;;;;;;;;5024434;28;20621;-69
2024/02/01 12:27:01;;;;;;;13.98;1.85;;;;;;;;;;5006900;28;20049;-68
2024/02/01 12:29:29;;;;;;;14.70;2.63;;;;;;;;;;5025337;28;20041;-69
2024/02/01 12:31:55;;;;;;;13.93;2.00;;;;;;;;;;4996380;28;20544;-69
2024/02/01 12:34:22;;;;;;;14.75;2.58;;;;;;;;;;5018424;28;20112;-69
2024/02/01 12:36:48;;;;;;;15.43;2.33;;;;;;;;;;5011201;28;20034;-70
2024/02/01 12:39:14;;;;;;;14.48;2.20;;;;;;;;;;5011084;28;20493;-69
2024/02/01 12:41:39;;;;;;;24.25;2.95;;;;;;;;;;5009369;28;20565;-69
2024/02/01 12:44:06;;;;;;;18.80;2.75;;;;;;;;;;5003470;28;20124;-69
2024/02/01 12:46:31;;;;;;;19.90;2.53;;;;;;;;;;5009174;28;20087;-69
2024/02/01 12:48:57;;;;;;;19.27;2.75;;;;;;;;;;5023179;28;20053;-69
2024/02/01 12:51:28;;;;;;;13.98;1.98;;;;;;;;;;5009581;28;20113;-68
2024/02/01 12:54:00;;;;;;;13.95;2.03;;;;;;;;;;5000715;28;20033;-69
2024/02/01 12:56:26;;;;;;;13.88;2.40;;;;;;;;;;5015920;28;20054;-70
2024/02/01 12:58:52;;;;;;;8.57;2.00;;;;;;;;;;5015275;28;20037;-68
2024/02/01 13:01:18;;;;;;;14.85;3.67;;;;;;;;;;5009558;28;20030;-69
2024/02/01 13:03:45;;;;;;;13.35;2.70;;;;;;;;;;5008719;28;20048;-69
2024/02/01 13:06:11;;;;;;;20.33;2.97;;;;;;;;;;4994116;28;20091;-69
2024/02/01 13:08:39;;;;;;;14.40;3.00;;;;;;;;;;5013652;28;20049;-69
2024/02/01 13:11:11;;;;;;;24.17;2.88;;;;;;;;;;5015321;28;20037;-70
2024/02/01 13:13:37;;;;;;;17.02;2.60;;;;;;;;;;5009276;28;20112;-68
2024/02/01 13:16:03;;;;;;;19.50;2.45;;;;;;;;;;5019303;28;20489;-69
2024/02/01 13:18:29;;;;;;;13.90;2.72;;;;;;;;;;4999231;28;20068;-70
2024/02/01 13:20:57;;;;;;;9.70;2.45;;;;;;;;;;5015120;28;20029;-68
2024/02/01 13:23:25;;;;;;;11.45;2.63;;;;;;;;;;5002891;28;20069;-69
2024/02/01 13:25:51;;;;;;;19.08;2.90;;;;;;;;;;5007810;28;20034;-70
2024/02/01 13:28:17;;;;;;;13.60;2.17;;;;;;;;;;4995371;28;20032;-69
2024/02/01 13:30:43;;;;;;;19.05;2.50;;;;;;;;;;5011453;28;20385;-69
2024/02/01 13:33:13;;;;;;;12.60;2.53;;;;;;;;;;4996571;28;20037;-70
2024/02/01 13:35:38;;;;;;;9.25;2.40;;;;;;;;;;5014816;28;20029;-70
2024/02/01 13:38:11;;;;;;;10.60;2.30;;;;;;;;;;5017553;28;20045;-69
2024/02/01 13:40:37;;;;;;;12.30;1.77;;;;;;;;;;5013563;28;20477;-69
2024/02/01 13:43:02;;;;;;;15.27;2.70;;;;;;;;;;4991606;28;20128;-69
2024/02/01 13:45:28;;;;;;;22.10;2.10;;;;;;;;;;5004840;28;20113;-69
2024/02/01 13:47:56;;;;;;;10.25;2.72;;;;;;;;;;5013349;28;20122;-69
2024/02/01 13:50:22;;;;;;;10.85;2.13;;;;;;;;;;5013159;28;20041;-70
2024/02/01 13:52:47;;;;;;;15.38;2.40;;;;;;;;;;5012018;28;20547;-69
2024/02/01 13:55:13;;;;;;;17.90;2.45;;;;;;;;;;5009906;28;20045;-69
2024/02/01 13:57:39;;;;;;;16.17;2.30;;;;;;;;;;5015770;28;20036;-69
2024/02/01 14:00:14;;;;;;;16.42;2.50;;;;;;;;;;5010411;28;20045;-71
2024/02/01 14:02:50;;;;;;;18.02;2.30;;;;;;;;;;5012352;28;20109;-70
2024/02/01 14:05:16;;;;;;;15.50;2.30;;;;;;;;;;4987151;28;20049;-69
2024/02/01 14:07:42;;;;;;;7.53;1.88;;;;;;;;;;4998412;28;20034;-69
2024/02/01 14:10:09;;;;;;;13.00;1.88;;;;;;;;;;5010396;28;20052;-69
2024/02/01 14:12:36;;;;;;;10.77;2.35;;;;;;;;;;4996128;28;20046;-68
2024/02/01 14:15:03;;;;;;;11.88;1.75;;;;;;;;;;5011232;28;20621;-70
2024/02/01 14:17:28;;;;;;;16.25;2.25;;;;;;;;;;5006563;28;20428;-69
2024/02/01 14:19:53;;;;;;;14.95;2.17;;;;;;;;;;5013508;28;20111;-69
2024/02/01 14:22:19;;;;;;;15.95;2.00;;;;;;;;;;5010985;28;20041;-70
2024/02/01 14:24:47;;;;;;;10.52;2.42;;;;;;;;;;5019902;28;20095;-68
2024/02/01 14:27:12;;;;;;;13.95;2.08;;;;;;;;;;5015410;28;20038;-70
2024/02/01 14:29:37;;;;;;;8.88;1.75;;;;;;;;;;5009847;28;20040;-68
2024/02/01 14:32:06;;;;;;;12.82;2.33;;;;;;;;;;5016482;28;20064;-69
2024/02/01 14:34:31;;;;;;;13.98;1.95;;;;;;;;;;4995802;28;20121;-68
2024/02/01 14:36:57;;;;;;;10.57;1.80;;;;;;;;;;5016353;28;20113;-70
2024/02/01 14:39:22;;;;;;;8.30;1.67;;;;;;;;;;5022540;28;20046;-69
2024/02/01 14:41:51;;;;;;;12.80;2.50;;;;;;;;;;5011580;28;20042;-68
2024/02/01 14:44:17;;;;;;;17.30;2.78;;;;;;;;;;5020290;28;20065;-69
2024/02/01 14:46:44;;;;;;;11.27;2.17;;;;;;;;;;5004535;28;20079;-68
2024/02/01 14:49:09;;;;;;;10.07;1.83;;;;;;;;;;5010458;28;20045;-68
2024/02/01 14:51:35;;;;;;;22.23;2.40;;;;;;;;;;5007821;28;20091;-69
2024/02/01 14:54:05;;;;;;;15.45;2.13;;;;;;;;;;5009423;28;20034;-70
2024/02/01 14:56:33;;;;;;;12.90;2.45;;;;;;;;;;5013617;28;20053;-69
2024/02/01 14:59:02;;;;;;;13.55;1.90;;;;;;;;;;5021798;28;20485;-68
2024/02/01 15:01:28;;;;;;;16.10;1.85;;;;;;;;;;5012748;28;20041;-70
2024/02/01 15:03:54;;;;;;;16.20;2.30;;;;;;;;;;5007605;28;20077;-69
2024/02/01 15:06:28;;;;;;;9.07;2.13;;;;;;;;;;5016735;28;20041;-68
2024/02/01 15:08:58;;;;;;;7.22;2.00;;;;;;;;;;5011263;28;20056;-69
2024/02/01 15:11:28;;;;;;;10.85;1.50;;;;;;;;;;5012691;28;20446;-69
2024/02/01 15:13:59;;;;;;;13.60;2.17;;;;;;;;;;4989583;28;20457;-68
2024/02/01 15:16:25;;;;;;;11.05;2.08;;;;;;;;;;5006232;28;20073;-69
2024/02/01 15:18:51;;;;;;;17.33;1.88;;;;;;;;;;5016054;28;20045;-70
2024/02/01 15:21:17;;;;;;;15.95;2.20;;;;;;;;;;4994250;28;20104;-68
2024/02/01 15:23:44;;;;;;;11.50;2.53;;;;;;;;;;5005253;28;20096;-68
2024/02/01 15:26:10;;;;;;;18.45;1.75;;;;;;;;;;5007569;28;20444;-69
2024/02/01 15:28:39;;;;;;;14.32;2.83;;;;;;;;;;5010803;28;20075;-69
2024/02/01 15:31:05;;;;;;;15.88;1.75;;;;;;;;;;5013669;28;20571;-68